Time;durP1;ratioP1;P1;durP2;ratioP2;P2;SDS_P1;SDS_P2;PMS_P1;PMS_P2;Temp;Humidity;BMP_temperature;BMP_pressure;BME280_temperature;BME280_humidity;BME280_pressure;Samples;Min_cycle;Max_cycle;Signal;HPM_P1;HPM_P2
2023/06/08 00:00:24;;;;;;;0.15;0.15;;;12.80;99.90;;;;;;4839300;29;20141;-85
2023/06/08 00:02:50;;;;;;;0.20;0.20;;;12.80;99.90;;;;;;4838640;29;20057;-85
2023/06/08 00:05:17;;;;;;;0.20;0.20;;;13.00;99.90;;;;;;4831313;29;20068;-86
2023/06/08 00:07:43;;;;;;;0.20;0.20;;;12.80;99.90;;;;;;4843761;29;20073;-86
2023/06/08 00:10:09;;;;;;;0.20;0.20;;;12.80;99.90;;;;;;4839893;29;20065;-85
2023/06/08 00:12:36;;;;;;;0.20;0.20;;;12.70;99.90;;;;;;4839881;29;20514;-85
2023/06/08 00:15:03;;;;;;;0.20;0.20;;;12.70;99.90;;;;;;4840157;29;20053;-87
2023/06/08 00:17:31;;;;;;;0.20;0.20;;;12.70;99.90;;;;;;4840552;29;20612;-84
2023/06/08 00:19:59;;;;;;;0.20;0.20;;;12.70;99.90;;;;;;4839319;29;20061;-85
2023/06/08 00:22:26;;;;;;;0.20;0.20;;;12.70;99.90;;;;;;4856746;29;20048;-84
2023/06/08 00:24:52;;;;;;;0.20;0.20;;;12.60;99.90;;;;;;4837733;29;20053;-87
2023/06/08 00:27:18;;;;;;;0.20;0.20;;;12.60;99.90;;;;;;4843827;29;20041;-84
2023/06/08 00:29:43;;;;;;;0.20;0.20;;;12.70;99.90;;;;;;4859215;29;20049;-84
2023/06/08 00:32:09;;;;;;;0.10;0.10;;;12.70;99.90;;;;;;4836094;29;20057;-83
2023/06/08 00:34:35;;;;;;;0.20;0.20;;;12.70;99.90;;;;;;4837119;29;20042;-84
2023/06/08 00:37:00;;;;;;;0.17;0.17;;;12.70;99.90;;;;;;4854986;29;20113;-86
2023/06/08 00:39:26;;;;;;;0.10;0.10;;;12.70;99.90;;;;;;4840408;29;20454;-84
2023/06/08 00:41:52;;;;;;;0.10;0.10;;;12.70;99.90;;;;;;4838371;29;20125;-84
2023/06/08 00:44:18;;;;;;;0.10;0.10;;;12.70;99.90;;;;;;4853173;29;20479;-84
2023/06/08 00:46:44;;;;;;;0.20;0.20;;;12.60;99.90;;;;;;4838330;29;20132;-84
2023/06/08 00:49:15;;;;;;;0.20;0.20;;;12.70;99.90;;;;;;4856571;29;20081;-86
2023/06/08 00:51:42;;;;;;;0.20;0.20;;;12.70;99.90;;;;;;4837865;29;20050;-86
2023/06/08 00:54:12;;;;;;;0.20;0.20;;;12.70;99.90;;;;;;4838003;29;20587;-87
2023/06/08 00:56:38;;;;;;;0.20;0.20;;;12.60;99.90;;;;;;4840474;29;20528;-84
2023/06/08 00:59:05;;;;;;;0.20;0.20;;;12.60;99.90;;;;;;4830777;29;20057;-84
2023/06/08 01:01:31;;;;;;;0.20;0.20;;;12.60;99.90;;;;;;4835060;29;20128;-84
2023/06/08 01:04:06;;;;;;;0.20;0.20;;;12.70;99.90;;;;;;4851702;29;20047;-85
2023/06/08 01:06:35;;;;;;;0.20;0.20;;;12.60;99.90;;;;;;4855642;29;20056;-84
2023/06/08 01:09:17;;;;;;;0.20;0.20;;;12.60;99.90;;;;;;4837629;29;20054;-84
2023/06/08 01:11:48;;;;;;;0.20;0.20;;;12.60;99.90;;;;;;4848931;29;20149;-84
2023/06/08 01:14:24;;;;;;;;;;;12.60;99.90;;;;;;4830484;29;20549;-85
2023/06/08 01:16:54;;;;;;;0.20;0.20;;;12.60;99.90;;;;;;4848782;29;20004;-84
2023/06/08 01:19:40;;;;;;;0.20;0.20;;;12.60;99.90;;;;;;4839328;29;20049;-84
2023/06/08 01:22:05;;;;;;;0.20;0.20;;;12.60;99.90;;;;;;4838256;29;20054;-85
2023/06/08 01:24:35;;;;;;;0.20;0.20;;;12.60;99.90;;;;;;4835091;29;20101;-86
2023/06/08 01:27:06;;;;;;;0.20;0.20;;;12.60;99.90;;;;;;4852012;29;20502;-85
2023/06/08 01:29:33;;;;;;;0.20;0.20;;;12.60;99.90;;;;;;4857831;29;20052;-84
2023/06/08 01:31:59;;;;;;;0.20;0.20;;;12.60;99.90;;;;;;4836888;29;20041;-86
2023/06/08 01:34:26;;;;;;;0.10;0.10;;;12.60;99.90;;;;;;4855225;29;20113;-85
2023/06/08 01:37:06;;;;;;;0.20;0.20;;;12.60;99.90;;;;;;4839152;29;20467;-85
2023/06/08 01:40:12;;;;;;;0.20;0.20;;;12.60;99.90;;;;;;4840191;29;20046;-86
2023/06/08 01:42:42;;;;;;;0.10;0.10;;;12.60;99.90;;;;;;4836880;29;20074;-84
2023/06/08 01:45:20;;;;;;;0.10;0.10;;;12.50;99.90;;;;;;4854590;29;20057;-87
2023/06/08 01:47:55;;;;;;;0.20;0.20;;;12.50;99.90;;;;;;4854519;29;20049;-86
2023/06/08 01:50:21;;;;;;;0.10;0.10;;;12.50;99.90;;;;;;4834571;29;20053;-84
2023/06/08 01:52:48;;;;;;;0.20;0.20;;;12.50;99.90;;;;;;4835720;29;20038;-85
2023/06/08 01:55:18;;;;;;;0.20;0.20;;;12.50;99.90;;;;;;4850189;29;20037;-85
2023/06/08 01:57:43;;;;;;;0.10;0.10;;;12.50;99.90;;;;;;4853729;29;20501;-86
2023/06/08 02:00:11;;;;;;;0.20;0.20;;;12.50;99.90;;;;;;4857978;29;20044;-85
2023/06/08 02:02:37;;;;;;;0.10;0.10;;;12.50;99.90;;;;;;4852864;29;20101;-85
2023/06/08 02:05:07;;;;;;;0.20;0.20;;;12.50;99.90;;;;;;4837698;29;20110;-86
2023/06/08 02:07:33;;;;;;;0.20;0.20;;;12.50;99.90;;;;;;4833382;29;20052;-86
2023/06/08 02:09:58;;;;;;;0.10;0.10;;;12.60;99.90;;;;;;4834379;29;20065;-86
2023/06/08 02:12:24;;;;;;;0.20;0.20;;;12.50;99.90;;;;;;4851427;29;20406;-85
2023/06/08 02:14:50;;;;;;;0.10;0.10;;;12.50;99.90;;;;;;4829103;29;20041;-85
2023/06/08 02:17:18;;;;;;;0.10;0.10;;;12.60;99.90;;;;;;4831388;29;20047;-84
2023/06/08 02:19:44;;;;;;;0.10;0.10;;;12.60;99.90;;;;;;4832504;29;20056;-84
2023/06/08 02:22:10;;;;;;;0.10;0.10;;;12.50;99.90;;;;;;4858463;29;20053;-84
2023/06/08 02:24:36;;;;;;;0.20;0.20;;;12.50;99.90;;;;;;4846934;29;20410;-85
2023/06/08 02:27:02;;;;;;;0.10;0.10;;;12.60;99.90;;;;;;4837322;29;20055;-85
2023/06/08 02:29:28;;;;;;;0.20;0.20;;;12.60;99.90;;;;;;4840536;29;20038;-85
2023/06/08 02:31:54;;;;;;;0.20;0.20;;;12.50;99.90;;;;;;4839506;29;20435;-85
2023/06/08 02:34:20;;;;;;;0.20;0.20;;;12.60;99.90;;;;;;4854496;29;20057;-87
2023/06/08 02:36:47;;;;;;;0.20;0.20;;;12.60;99.90;;;;;;4840059;29;20388;-87
2023/06/08 02:39:14;;;;;;;0.20;0.20;;;12.60;99.90;;;;;;4844194;29;20482;-86
2023/06/08 02:41:40;;;;;;;0.10;0.10;;;12.50;99.90;;;;;;4852838;29;20061;-87
2023/06/08 02:44:06;;;;;;;0.10;0.10;;;12.60;99.90;;;;;;4836948;29;20054;-85
2023/06/08 02:46:32;;;;;;;0.10;0.10;;;12.50;99.90;;;;;;4833252;29;20050;-85
2023/06/08 02:48:58;;;;;;;0.10;0.10;;;12.50;99.90;;;;;;4831379;29;20046;-86
2023/06/08 02:51:25;;;;;;;0.20;0.20;;;12.60;99.90;;;;;;4838672;29;20049;-85
2023/06/08 02:53:50;;;;;;;0.10;0.10;;;12.50;99.90;;;;;;4838581;29;20057;-85
2023/06/08 02:56:16;;;;;;;0.20;0.20;;;12.60;99.90;;;;;;4849676;29;20050;-85
2023/06/08 02:58:46;;;;;;;0.20;0.20;;;12.60;99.90;;;;;;4838200;29;20042;-86
2023/06/08 03:01:15;;;;;;;0.10;0.10;;;12.60;99.90;;;;;;4852721;29;20046;-87
2023/06/08 03:03:45;;;;;;;0.20;0.20;;;12.60;99.90;;;;;;4839819;29;20601;-86
2023/06/08 03:06:14;;;;;;;0.20;0.20;;;12.60;99.90;;;;;;4840804;29;20049;-86
2023/06/08 03:08:40;;;;;;;0.10;0.10;;;12.60;99.90;;;;;;4841314;29;20049;-87
2023/06/08 03:11:05;;;;;;;0.20;0.20;;;12.60;99.90;;;;;;4831906;29;20065;-85
2023/06/08 03:13:31;;;;;;;0.20;0.20;;;12.60;99.90;;;;;;4835180;29;20045;-85
2023/06/08 03:15:56;;;;;;;0.20;0.20;;;12.60;99.90;;;;;;4835482;29;20056;-85
2023/06/08 03:18:24;;;;;;;0.10;0.10;;;12.70;99.90;;;;;;4841353;29;20054;-86
2023/06/08 03:20:51;;;;;;;0.20;0.20;;;12.70;99.90;;;;;;4857893;29;20114;-87
2023/06/08 03:23:19;;;;;;;0.20;0.20;;;12.70;99.90;;;;;;4839981;29;20049;-84
2023/06/08 03:25:48;;;;;;;0.20;0.20;;;12.70;99.90;;;;;;4836724;29;20088;-84
2023/06/08 03:28:18;;;;;;;0.20;0.20;;;12.70;99.90;;;;;;4832355;29;20050;-85
2023/06/08 03:30:44;;;;;;;0.20;0.20;;;12.70;99.90;;;;;;4856555;29;20049;-86
2023/06/08 03:33:11;;;;;;;0.15;0.15;;;12.70;99.90;;;;;;4854425;29;20053;-86
2023/06/08 03:35:37;;;;;;;0.17;0.17;;;12.70;99.90;;;;;;4835507;29;20074;-86
2023/06/08 03:38:03;;;;;;;0.10;0.10;;;12.70;99.90;;;;;;4848010;29;20141;-87
2023/06/08 03:40:29;;;;;;;0.10;0.10;;;12.80;99.90;;;;;;4834524;29;20129;-87
2023/06/08 03:42:54;;;;;;;0.20;0.20;;;12.70;99.90;;;;;;4830116;29;20505;-85
2023/06/08 03:45:20;;;;;;;0.20;0.20;;;12.70;99.90;;;;;;4855757;29;20059;-86
2023/06/08 03:47:46;;;;;;;0.20;0.20;;;12.80;99.90;;;;;;4856071;29;20057;-85
2023/06/08 03:50:12;;;;;;;0.10;0.10;;;12.70;99.90;;;;;;4840664;29;20158;-86
2023/06/08 03:52:38;;;;;;;0.20;0.20;;;12.80;99.90;;;;;;4858104;29;20053;-85
2023/06/08 03:55:06;;;;;;;0.10;0.10;;;12.70;99.90;;;;;;4840202;29;20117;-85
2023/06/08 03:57:32;;;;;;;0.20;0.20;;;12.80;99.90;;;;;;4851486;29;20084;-85
2023/06/08 03:59:57;;;;;;;0.17;0.17;;;12.80;99.90;;;;;;4857266;29;20144;-85
2023/06/08 04:02:23;;;;;;;0.10;0.10;;;12.80;99.90;;;;;;4842518;29;20094;-85
2023/06/08 04:04:49;;;;;;;0.10;0.10;;;12.80;99.90;;;;;;4855897;29;20454;-85
2023/06/08 04:07:16;;;;;;;0.20;0.20;;;12.80;99.90;;;;;;4855676;29;20056;-85
2023/06/08 04:09:42;;;;;;;0.20;0.20;;;12.80;99.90;;;;;;4855461;29;20045;-86
2023/06/08 04:12:08;;;;;;;0.20;0.20;;;12.80;99.90;;;;;;4840991;29;20097;-86
2023/06/08 04:14:34;;;;;;;0.20;0.20;;;12.90;99.90;;;;;;4837659;29;20509;-87
2023/06/08 04:17:00;;;;;;;0.20;0.20;;;12.90;99.90;;;;;;4845143;29;20046;-85
2023/06/08 04:19:26;;;;;;;0.20;0.20;;;12.90;99.90;;;;;;4860065;29;20057;-85
2023/06/08 04:21:56;;;;;;;0.10;0.10;;;12.90;99.90;;;;;;4843354;29;20180;-84
2023/06/08 04:24:28;;;;;;;0.10;0.10;;;12.90;99.90;;;;;;4841399;29;20501;-85
2023/06/08 04:26:56;;;;;;;0.10;0.10;;;12.90;99.90;;;;;;4854895;29;20570;-85
2023/06/08 04:29:22;;;;;;;0.20;0.20;;;12.90;99.90;;;;;;4834114;29;20061;-84
2023/06/08 04:31:47;;;;;;;0.13;0.13;;;12.90;99.90;;;;;;4843105;29;20041;-86
2023/06/08 04:34:13;;;;;;;0.20;0.20;;;13.00;99.90;;;;;;4859168;29;20561;-85
2023/06/08 04:36:43;;;;;;;0.20;0.20;;;13.00;99.90;;;;;;4846416;29;20117;-87
2023/06/08 04:39:09;;;;;;;0.10;0.10;;;13.00;99.90;;;;;;4842349;29;20037;-84
2023/06/08 04:41:38;;;;;;;0.10;0.10;;;13.00;99.90;;;;;;4842894;29;20049;-86
2023/06/08 04:44:05;;;;;;;0.10;0.10;;;13.00;99.90;;;;;;4859733;29;20133;-86
2023/06/08 04:46:33;;;;;;;0.10;0.10;;;13.00;99.90;;;;;;4843848;29;20446;-86
2023/06/08 04:48:59;;;;;;;0.10;0.10;;;12.50;99.90;;;;;;4841907;29;20042;-84
2023/06/08 04:51:29;;;;;;;0.10;0.10;;;13.10;99.90;;;;;;4841614;29;20041;-84
2023/06/08 04:54:01;;;;;;;0.20;0.20;;;13.00;99.90;;;;;;4835972;29;20421;-84
2023/06/08 04:56:33;;;;;;;0.10;0.10;;;13.10;99.90;;;;;;4837920;29;20136;-87
2023/06/08 04:58:59;;;;;;;0.10;0.10;;;13.10;99.90;;;;;;4839814;29;20080;-85
2023/06/08 05:01:26;;;;;;;0.20;0.20;;;13.10;99.90;;;;;;4840083;29;20570;-87
2023/06/08 05:03:51;;;;;;;0.10;0.10;;;13.10;99.90;;;;;;4836075;29;20053;-85
2023/06/08 05:06:17;;;;;;;0.10;0.10;;;13.10;99.90;;;;;;4842094;29;20090;-85
2023/06/08 05:08:43;;;;;;;0.10;0.10;;;13.20;99.90;;;;;;4842649;29;20053;-86
2023/06/08 05:11:09;;;;;;;0.15;0.15;;;13.20;99.90;;;;;;4842365;29;20059;-86
2023/06/08 05:13:34;;;;;;;0.20;0.20;;;13.20;99.90;;;;;;4842187;29;20041;-86
2023/06/08 05:16:01;;;;;;;0.10;0.10;;;13.20;99.90;;;;;;4860484;29;20045;-85
2023/06/08 05:18:29;;;;;;;0.20;0.20;;;13.30;99.90;;;;;;4836437;29;20092;-88
2023/06/08 05:20:54;;;;;;;0.15;0.15;;;13.30;99.90;;;;;;4841888;29;20049;-86
2023/06/08 05:23:20;;;;;;;0.20;0.20;;;13.30;99.90;;;;;;4860366;29;20090;-87
2023/06/08 05:25:46;;;;;;;0.15;0.15;;;13.40;99.90;;;;;;4854574;29;20064;-85
2023/06/08 05:28:12;;;;;;;0.10;0.10;;;13.40;99.90;;;;;;4841582;29;20088;-85
2023/06/08 05:30:37;;;;;;;0.13;0.13;;;13.40;99.90;;;;;;4856961;29;20108;-88
2023/06/08 05:33:03;;;;;;;0.10;0.10;;;13.50;99.90;;;;;;4839828;29;20041;-85
2023/06/08 05:35:29;;;;;;;0.20;0.20;;;13.50;99.90;;;;;;4838805;29;20053;-85
2023/06/08 05:37:55;;;;;;;0.20;0.20;;;13.50;99.90;;;;;;4840345;29;20054;-87
2023/06/08 05:40:21;;;;;;;0.20;0.20;;;13.50;99.90;;;;;;4853318;29;20053;-86
2023/06/08 05:42:47;;;;;;;0.10;0.10;;;13.50;99.90;;;;;;4851892;29;20515;-86
2023/06/08 05:45:12;;;;;;;0.10;0.10;;;13.60;99.90;;;;;;4843033;29;20096;-85
2023/06/08 05:47:38;;;;;;;0.10;0.10;;;13.60;99.90;;;;;;4840425;29;20053;-86
2023/06/08 05:50:05;;;;;;;0.10;0.10;;;13.60;99.90;;;;;;4841907;29;20050;-85
2023/06/08 05:52:31;;;;;;;0.20;0.20;;;13.60;99.90;;;;;;4835065;29;20057;-76
2023/06/08 05:54:57;;;;;;;0.20;0.20;;;13.70;99.90;;;;;;4854329;29;20145;-77
2023/06/08 05:57:23;;;;;;;0.10;0.10;;;13.70;99.90;;;;;;4853467;29;20042;-76
2023/06/08 05:59:49;;;;;;;0.20;0.20;;;13.70;99.90;;;;;;4851012;29;20057;-77
2023/06/08 06:02:14;;;;;;;0.20;0.20;;;13.70;99.90;;;;;;4855363;29;20080;-76
2023/06/08 06:04:40;;;;;;;0.20;0.20;;;13.80;99.90;;;;;;4843379;29;20622;-76
2023/06/08 06:07:06;;;;;;;0.10;0.10;;;13.80;99.90;;;;;;4833888;29;20053;-76
2023/06/08 06:09:32;;;;;;;0.20;0.20;;;13.80;99.90;;;;;;4840809;29;20483;-75
2023/06/08 06:11:59;;;;;;;0.10;0.10;;;13.80;99.90;;;;;;4841322;29;20089;-76
2023/06/08 06:14:26;;;;;;;0.20;0.20;;;13.70;99.90;;;;;;4840769;29;20478;-77
2023/06/08 06:16:52;;;;;;;0.10;0.10;;;13.90;99.90;;;;;;4841669;29;20057;-76
2023/06/08 06:19:18;;;;;;;0.20;0.20;;;13.90;99.90;;;;;;4838593;29;20383;-76
2023/06/08 06:21:43;;;;;;;0.20;0.20;;;13.90;99.90;;;;;;4838678;29;20065;-76
2023/06/08 06:24:17;;;;;;;0.20;0.20;;;13.90;99.90;;;;;;4838135;29;20056;-76
2023/06/08 06:26:42;;;;;;;0.10;0.10;;;14.00;99.90;;;;;;4857115;29;20068;-76
2023/06/08 06:29:08;;;;;;;0.15;0.15;;;14.00;99.90;;;;;;4844776;29;20084;-76
2023/06/08 06:31:33;;;;;;;0.20;0.20;;;14.10;99.90;;;;;;4854479;29;20294;-77
2023/06/08 06:33:59;;;;;;;0.10;0.10;;;14.10;99.90;;;;;;4854356;29;20049;-78
2023/06/08 06:36:26;;;;;;;0.10;0.10;;;14.10;99.90;;;;;;4853906;29;20053;-77
2023/06/08 06:38:52;;;;;;;0.20;0.20;;;14.20;99.90;;;;;;4851909;29;20049;-76
2023/06/08 06:41:17;;;;;;;0.20;0.20;;;14.20;99.90;;;;;;4852706;29;20077;-76
2023/06/08 06:43:43;;;;;;;0.20;0.20;;;14.20;99.90;;;;;;4855325;29;20079;-76
2023/06/08 06:46:09;;;;;;;0.15;0.15;;;14.30;99.90;;;;;;4834531;29;20151;-76
2023/06/08 06:48:35;;;;;;;0.10;0.10;;;14.30;99.90;;;;;;4852774;29;20046;-77
2023/06/08 06:51:00;;;;;;;0.10;0.10;;;14.40;99.90;;;;;;4856101;29;20057;-76
2023/06/08 06:53:26;;;;;;;0.17;0.17;;;14.40;99.90;;;;;;4836644;29;20045;-76
2023/06/08 06:55:52;;;;;;;0.20;0.20;;;14.50;99.90;;;;;;4840048;29;20076;-76
2023/06/08 06:58:19;;;;;;;0.20;0.20;;;14.40;99.90;;;;;;4835905;29;20050;-76
2023/06/08 07:00:45;;;;;;;0.20;0.20;;;14.40;99.90;;;;;;4838329;29;20057;-76
2023/06/08 07:03:11;;;;;;;0.20;0.20;;;14.40;99.90;;;;;;4837985;29;20056;-76
2023/06/08 07:05:37;;;;;;;0.20;0.20;;;14.50;99.90;;;;;;4858392;29;20128;-76
2023/06/08 07:08:03;;;;;;;0.20;0.20;;;14.50;99.90;;;;;;4840715;29;20128;-77
2023/06/08 07:10:29;;;;;;;0.20;0.20;;;14.50;99.90;;;;;;4856475;29;20045;-76
2023/06/08 07:12:56;;;;;;;0.20;0.20;;;14.50;99.90;;;;;;4835664;29;20060;-79
2023/06/08 07:15:22;;;;;;;0.20;0.20;;;14.60;99.90;;;;;;4851554;29;20077;-76
2023/06/08 07:17:48;;;;;;;0.20;0.20;;;14.50;99.90;;;;;;4837648;29;20090;-76
2023/06/08 07:20:14;;;;;;;0.20;0.20;;;14.60;99.90;;;;;;4839456;29;20112;-77
2023/06/08 07:22:40;;;;;;;0.20;0.20;;;14.60;99.90;;;;;;4856714;29;20518;-75
2023/06/08 07:25:06;;;;;;;0.10;0.10;;;14.70;99.90;;;;;;4841835;29;20041;-75
2023/06/08 07:27:32;;;;;;;0.20;0.20;;;14.70;99.90;;;;;;4839947;29;20049;-77
2023/06/08 07:29:57;;;;;;;0.10;0.10;;;14.70;99.90;;;;;;4841243;29;20064;-75
2023/06/08 07:32:24;;;;;;;0.20;0.20;;;14.80;99.90;;;;;;4858164;29;20093;-76
2023/06/08 07:34:50;;;;;;;0.20;0.20;;;14.80;99.90;;;;;;4839528;29;20045;-75
2023/06/08 07:37:16;;;;;;;0.20;0.20;;;14.80;99.90;;;;;;4839423;29;20053;-76
2023/06/08 07:39:41;;;;;;;0.10;0.10;;;14.80;99.90;;;;;;4843399;29;20069;-76
2023/06/08 07:42:07;;;;;;;0.20;0.20;;;14.80;99.90;;;;;;4821678;29;20050;-75
2023/06/08 07:44:33;;;;;;;0.20;0.20;;;14.90;99.90;;;;;;4856033;29;20384;-76
2023/06/08 07:47:00;;;;;;;0.13;0.13;;;14.90;99.90;;;;;;4841424;29;20049;-75
2023/06/08 07:49:28;;;;;;;0.20;0.20;;;14.90;99.90;;;;;;4839435;29;20401;-75
2023/06/08 07:51:54;;;;;;;0.20;0.20;;;15.00;99.90;;;;;;4841565;29;20121;-75
2023/06/08 07:54:19;;;;;;;0.20;0.20;;;15.00;99.90;;;;;;4857932;29;20049;-75
2023/06/08 07:56:46;;;;;;;0.20;0.20;;;15.10;99.90;;;;;;4840437;29;20050;-75
2023/06/08 07:59:12;;;;;;;0.10;0.10;;;15.10;99.90;;;;;;4857587;29;20045;-75
2023/06/08 08:01:38;;;;;;;0.20;0.20;;;15.10;99.90;;;;;;4858141;29;20386;-75
2023/06/08 08:04:03;;;;;;;0.13;0.13;;;15.20;99.90;;;;;;4839051;29;20050;-76
2023/06/08 08:06:29;;;;;;;0.10;0.10;;;15.20;99.90;;;;;;4841131;29;20047;-75
2023/06/08 08:08:55;;;;;;;0.20;0.20;;;15.20;99.90;;;;;;4857154;29;20120;-75
2023/06/08 08:11:21;;;;;;;0.20;0.20;;;15.30;99.90;;;;;;4857053;29;20128;-77
2023/06/08 08:13:47;;;;;;;0.10;0.10;;;15.30;99.90;;;;;;4840696;29;20393;-75
2023/06/08 08:16:13;;;;;;;0.20;0.20;;;15.30;99.90;;;;;;4857078;29;20049;-76
2023/06/08 08:18:38;;;;;;;0.10;0.10;;;15.30;99.90;;;;;;4839745;29;20047;-75
2023/06/08 08:21:04;;;;;;;0.20;0.20;;;15.40;99.90;;;;;;4857466;29;20053;-75
2023/06/08 08:23:30;;;;;;;0.10;0.10;;;15.40;99.90;;;;;;4840407;29;20076;-76
2023/06/08 08:25:55;;;;;;;0.20;0.20;;;15.50;99.90;;;;;;4857031;29;20053;-75
2023/06/08 08:28:21;;;;;;;0.20;0.20;;;15.50;99.90;;;;;;4857173;29;20049;-75
2023/06/08 08:30:46;;;;;;;0.20;0.20;;;15.60;99.90;;;;;;4840136;29;20486;-77
2023/06/08 08:33:13;;;;;;;0.20;0.20;;;15.60;99.90;;;;;;4839822;29;20046;-76
2023/06/08 08:35:38;;;;;;;0.20;0.20;;;15.70;99.90;;;;;;4857501;29;20050;-77
2023/06/08 08:38:05;;;;;;;0.20;0.20;;;15.70;99.90;;;;;;4838337;29;20054;-76
2023/06/08 08:40:31;;;;;;;0.20;0.20;;;15.70;99.90;;;;;;4833806;29;20133;-75
2023/06/08 08:43:24;;;;;;;0.20;0.20;;;15.70;99.90;;;;;;4856023;29;20136;-76
2023/06/08 08:45:50;;;;;;;0.20;0.20;;;15.80;99.90;;;;;;4857254;29;20101;-76
2023/06/08 08:48:19;;;;;;;0.20;0.20;;;15.90;99.90;;;;;;4843109;29;20053;-77
2023/06/08 08:50:53;;;;;;;0.20;0.20;;;15.90;99.90;;;;;;4860864;29;20410;-77
2023/06/08 08:53:23;;;;;;;0.20;0.20;;;15.90;99.90;;;;;;4843419;29;20521;-77
2023/06/08 08:55:48;;;;;;;0.20;0.20;;;16.00;99.90;;;;;;4843579;29;20077;-77
2023/06/08 08:58:18;;;;;;;0.20;0.20;;;16.00;99.90;;;;;;4850784;29;20076;-77
2023/06/08 09:00:48;;;;;;;0.20;0.20;;;16.10;99.90;;;;;;4824779;29;20093;-77
2023/06/08 09:03:17;;;;;;;0.13;0.13;;;16.10;99.90;;;;;;4841164;29;20137;-77
2023/06/08 09:05:44;;;;;;;0.20;0.20;;;16.20;99.90;;;;;;4824665;29;20042;-78
2023/06/08 09:08:10;;;;;;;0.20;0.20;;;16.20;99.90;;;;;;4825489;29;20042;-77
2023/06/08 09:10:36;;;;;;;0.20;0.20;;;16.20;99.90;;;;;;4836109;29;20038;-77
2023/06/08 09:13:02;;;;;;;0.20;0.20;;;16.30;99.90;;;;;;4858633;29;20104;-77
2023/06/08 09:15:31;;;;;;;0.10;0.10;;;16.30;99.90;;;;;;4860629;29;20041;-77
2023/06/08 09:18:02;;;;;;;0.15;0.15;;;16.20;99.90;;;;;;4842728;29;20710;-77
2023/06/08 09:20:34;;;;;;;0.20;0.20;;;16.30;99.90;;;;;;4859608;29;20046;-78
2023/06/08 09:23:23;;;;;;;0.13;0.13;;;16.40;99.90;;;;;;4859800;29;20068;-77
2023/06/08 09:25:51;;;;;;;0.20;0.20;;;16.50;99.90;;;;;;4859588;29;20413;-76
2023/06/08 09:28:28;;;;;;;0.20;0.20;;;16.50;99.90;;;;;;4859504;29;20050;-77
2023/06/08 09:30:57;;;;;;;0.20;0.20;;;16.60;99.90;;;;;;4843437;29;20054;-77
2023/06/08 09:33:26;;;;;;;0.20;0.20;;;16.60;99.90;;;;;;4858850;29;20053;-77
2023/06/08 09:35:58;;;;;;;0.20;0.20;;;16.70;99.90;;;;;;4842333;29;20561;-76
2023/06/08 09:38:27;;;;;;;0.20;0.20;;;16.70;99.90;;;;;;4860235;29;20507;-77
2023/06/08 09:41:28;;;;;;;0.93;0.47;;;16.80;99.90;;;;;;4855777;29;20053;-77
2023/06/08 09:43:54;;;;;;;0.20;0.20;;;16.80;99.90;;;;;;4776773;29;20055;-76
2023/06/08 09:46:39;;;;;;;0.20;0.20;;;16.90;99.90;;;;;;4813993;29;20053;-76
2023/06/08 09:49:06;;;;;;;0.20;0.20;;;16.90;99.90;;;;;;4820139;29;20357;-77
2023/06/08 09:51:37;;;;;;;0.15;0.15;;;16.90;99.90;;;;;;4821799;29;20095;-77
2023/06/08 09:54:03;;;;;;;0.20;0.20;;;17.00;99.90;;;;;;4823813;29;20054;-78
2023/06/08 09:56:29;;;;;;;0.20;0.20;;;17.00;99.90;;;;;;4840122;29;20046;-77
2023/06/08 09:58:56;;;;;;;0.20;0.20;;;17.10;99.90;;;;;;4839266;29;20058;-77
2023/06/08 10:01:55;;;;;;;0.20;0.20;;;17.10;99.90;;;;;;4840191;29;20068;-77
2023/06/08 10:04:36;;;;;;;0.20;0.20;;;17.10;99.90;;;;;;4838828;29;20056;-77
2023/06/08 10:07:05;;;;;;;0.20;0.20;;;17.20;99.90;;;;;;4839520;29;20110;-77
2023/06/08 10:09:36;;;;;;;0.20;0.20;;;17.20;99.90;;;;;;4840382;29;20041;-76
2023/06/08 10:12:02;;;;;;;0.20;0.20;;;17.20;99.90;;;;;;4839193;29;20053;-78
2023/06/08 10:14:28;;;;;;;0.20;0.20;;;17.20;99.90;;;;;;4839663;29;20103;-77
2023/06/08 10:16:56;;;;;;;0.20;0.20;;;17.30;99.90;;;;;;4838522;29;20046;-77
2023/06/08 10:19:23;;;;;;;0.20;0.20;;;17.40;99.90;;;;;;4839794;29;20121;-78
2023/06/08 10:21:50;;;;;;;0.20;0.20;;;17.40;99.90;;;;;;4839163;29;20046;-77
2023/06/08 10:24:19;;;;;;;0.20;0.20;;;17.40;99.90;;;;;;4837851;29;20704;-77
2023/06/08 10:26:46;;;;;;;0.20;0.20;;;17.40;99.90;;;;;;4840658;29;20056;-78
2023/06/08 10:29:11;;;;;;;0.20;0.20;;;17.50;99.90;;;;;;4840591;29;20191;-77
2023/06/08 10:31:42;;;;;;;0.20;0.20;;;17.40;99.90;;;;;;4838559;29;20152;-78
2023/06/08 10:34:09;;;;;;;0.20;0.20;;;17.50;99.90;;;;;;4839217;29;20102;-77
2023/06/08 10:36:36;;;;;;;0.20;0.20;;;17.60;99.90;;;;;;4839308;29;20483;-76
2023/06/08 10:39:07;;;;;;;0.20;0.20;;;17.60;99.90;;;;;;4838917;29;20049;-77
2023/06/08 10:41:40;;;;;;;;;;;17.60;99.90;;;;;;4831841;29;20049;-76
2023/06/08 10:44:06;;;;;;;0.20;0.20;;;17.70;99.90;;;;;;4840371;29;19980;-76
2023/06/08 10:46:42;;;;;;;0.20;0.20;;;17.70;99.90;;;;;;4842037;29;20053;-76
2023/06/08 10:49:08;;;;;;;0.20;0.20;;;17.80;99.90;;;;;;4841015;29;20049;-76
2023/06/08 10:51:43;;;;;;;0.20;0.20;;;17.80;99.90;;;;;;4841712;29;20486;-76
2023/06/08 10:54:20;;;;;;;0.20;0.20;;;17.90;99.90;;;;;;4841574;29;20092;-77
2023/06/08 10:56:51;;;;;;;0.20;0.20;;;17.90;99.90;;;;;;4840983;29;20046;-77
2023/06/08 10:59:23;;;;;;;0.20;0.20;;;18.00;99.90;;;;;;4839357;29;20054;-77
2023/06/08 11:01:49;;;;;;;0.20;0.20;;;18.00;99.90;;;;;;4823528;29;20082;-77
2023/06/08 11:04:15;;;;;;;0.20;0.20;;;18.10;99.90;;;;;;4838851;29;20081;-77
2023/06/08 11:06:42;;;;;;;0.20;0.20;;;18.20;99.90;;;;;;4839087;29;20087;-77
2023/06/08 11:09:08;;;;;;;0.20;0.20;;;18.20;99.90;;;;;;4849804;29;20101;-76
2023/06/08 11:11:35;;;;;;;0.30;0.30;;;18.20;99.90;;;;;;4841362;29;20233;-76
2023/06/08 11:14:01;;;;;;;0.20;0.20;;;18.30;99.90;;;;;;4857240;29;20053;-76
2023/06/08 11:16:27;;;;;;;0.17;0.17;;;18.30;99.90;;;;;;4858603;29;20482;-78
2023/06/08 11:18:52;;;;;;;0.20;0.20;;;18.40;99.90;;;;;;4839879;29;20037;-76
2023/06/08 11:21:23;;;;;;;0.20;0.20;;;18.40;99.90;;;;;;4857533;29;20046;-77
2023/06/08 11:23:49;;;;;;;;;;;18.40;99.90;;;;;;4841801;29;20520;-77
2023/06/08 11:26:15;;;;;;;0.38;0.30;;;18.50;99.90;;;;;;4856767;29;19924;-76
2023/06/08 11:28:43;;;;;;;0.22;0.22;;;18.50;99.90;;;;;;4841294;29;20053;-77
2023/06/08 11:31:10;;;;;;;0.20;0.20;;;18.60;99.90;;;;;;4840890;29;20076;-76
2023/06/08 11:33:35;;;;;;;0.20;0.20;;;18.60;99.80;;;;;;4856102;29;20053;-76
2023/06/08 11:36:02;;;;;;;0.17;0.17;;;18.70;99.90;;;;;;4841235;29;20049;-76
2023/06/08 11:38:28;;;;;;;0.25;0.25;;;18.70;99.70;;;;;;4857827;29;20064;-80
2023/06/08 11:40:57;;;;;;;0.20;0.20;;;18.80;99.50;;;;;;4837777;29;20077;-77
2023/06/08 11:43:23;;;;;;;0.20;0.20;;;18.80;99.40;;;;;;4841274;29;20060;-76
2023/06/08 11:45:50;;;;;;;0.20;0.20;;;18.90;99.50;;;;;;4841222;29;20057;-77
2023/06/08 11:48:15;;;;;;;0.20;0.20;;;18.90;99.50;;;;;;4855918;29;20101;-76
2023/06/08 11:50:50;;;;;;;0.20;0.20;;;18.90;99.60;;;;;;4857943;29;20457;-77
2023/06/08 11:53:22;;;;;;;0.15;0.15;;;19.00;99.60;;;;;;4857543;29;20080;-76
2023/06/08 11:55:50;;;;;;;0.10;0.10;;;19.10;99.60;;;;;;4840542;29;20057;-77
2023/06/08 11:58:17;;;;;;;0.20;0.20;;;19.20;99.50;;;;;;4828694;29;20532;-77
2023/06/08 12:00:43;;;;;;;0.17;0.17;;;19.20;99.40;;;;;;4843726;29;20427;-78
2023/06/08 12:03:09;;;;;;;0.20;0.20;;;19.30;99.10;;;;;;4838664;29;20053;-76
2023/06/08 12:05:36;;;;;;;0.17;0.17;;;19.30;99.10;;;;;;4841611;29;20137;-77
2023/06/08 12:08:15;;;;;;;0.20;0.20;;;19.30;99.00;;;;;;4856993;29;20059;-76
2023/06/08 12:10:43;;;;;;;0.20;0.20;;;19.40;99.10;;;;;;4856557;29;20148;-75
2023/06/08 12:13:11;;;;;;;0.20;0.20;;;19.40;99.00;;;;;;4840725;29;20053;-77
2023/06/08 12:15:37;;;;;;;0.20;0.20;;;19.50;98.90;;;;;;4857141;29;20609;-77
2023/06/08 12:18:03;;;;;;;0.20;0.20;;;19.50;98.90;;;;;;4855810;29;20490;-76
2023/06/08 12:20:36;;;;;;;0.20;0.20;;;19.60;98.80;;;;;;4857477;29;20049;-75
2023/06/08 12:23:02;;;;;;;0.20;0.20;;;19.70;99.10;;;;;;4843807;29;20410;-76
2023/06/08 12:25:29;;;;;;;0.20;0.20;;;19.80;99.10;;;;;;4844840;29;20053;-76
2023/06/08 12:27:55;;;;;;;0.20;0.20;;;19.90;98.80;;;;;;4860916;29;20050;-77
2023/06/08 12:30:23;;;;;;;0.20;0.20;;;19.90;98.60;;;;;;4843902;29;20413;-77
2023/06/08 12:32:52;;;;;;;0.20;0.20;;;20.00;98.40;;;;;;4859989;29;20187;-76
2023/06/08 12:35:22;;;;;;;0.20;0.20;;;20.00;98.30;;;;;;4860148;29;20371;-76
2023/06/08 12:37:50;;;;;;;0.20;0.20;;;20.10;98.10;;;;;;4853315;29;20518;-77
2023/06/08 12:40:20;;;;;;;0.20;0.20;;;20.10;97.90;;;;;;4844079;29;20049;-76
2023/06/08 12:42:49;;;;;;;0.20;0.20;;;20.20;97.70;;;;;;4838752;29;20502;-77
2023/06/08 12:45:19;;;;;;;0.20;0.20;;;20.20;98.00;;;;;;4841739;29;20054;-76
2023/06/08 12:47:46;;;;;;;0.20;0.20;;;20.30;97.70;;;;;;4851466;29;20164;-76
2023/06/08 12:50:13;;;;;;;0.20;0.20;;;20.30;97.70;;;;;;4843100;29;20057;-76